Time;durP1;ratioP1;P1;durP2;ratioP2;P2;SDS_P1;SDS_P2;PMS_P1;PMS_P2;Temp;Humidity;BMP_temperature;BMP_pressure;BME280_temperature;BME280_humidity;BME280_pressure;Samples;Min_cycle;Max_cycle;Signal;HPM_P1;HPM_P2
2022/05/10 00:00:11;;;;;;;10.63;7.40;;;13.00;99.90;;;;;;4206965;28;20086;-64
2022/05/10 00:02:14;;;;;;;14.30;7.20;;;12.90;99.90;;;;;;4206132;28;20096;-51
2022/05/10 00:04:16;;;;;;;12.10;6.97;;;12.90;99.90;;;;;;4206557;28;20040;-53
2022/05/10 00:06:17;;;;;;;14.77;7.20;;;12.90;99.90;;;;;;4205014;28;20040;-68
2022/05/10 00:08:18;;;;;;;10.83;7.20;;;12.90;99.90;;;;;;4207071;28;20856;-70
2022/05/10 00:10:20;;;;;;;9.80;6.97;;;13.00;99.90;;;;;;4204401;28;20856;-59
2022/05/10 00:12:22;;;;;;;11.87;7.10;;;12.90;99.90;;;;;;4207624;28;20555;-55
2022/05/10 00:14:23;;;;;;;10.07;6.97;;;12.90;99.90;;;;;;4205078;28;20549;-63
2022/05/10 00:16:25;;;;;;;10.00;7.13;;;12.80;99.90;;;;;;4207459;28;20074;-57
2022/05/10 00:18:28;;;;;;;8.50;6.90;;;12.80;99.90;;;;;;4204799;28;20537;-55
2022/05/10 00:20:30;;;;;;;12.03;7.23;;;12.80;99.90;;;;;;4206647;28;20024;-66
2022/05/10 00:22:31;;;;;;;11.40;7.60;;;12.70;99.90;;;;;;4205778;28;20032;-57
2022/05/10 00:24:32;;;;;;;12.80;8.30;;;12.70;99.90;;;;;;4212054;28;20096;-59
2022/05/10 00:26:33;;;;;;;12.87;7.60;;;12.80;99.90;;;;;;4221714;28;20093;-75
2022/05/10 00:28:34;;;;;;;11.47;7.23;;;12.80;99.90;;;;;;4216808;28;20044;-54
2022/05/10 00:30:36;;;;;;;12.57;7.33;;;12.80;99.90;;;;;;4207854;28;20036;-60
2022/05/10 00:32:39;;;;;;;10.03;7.27;;;12.80;99.90;;;;;;4210439;28;20057;-70
2022/05/10 00:34:41;;;;;;;8.83;7.07;;;12.80;99.90;;;;;;4209391;28;20048;-60
2022/05/10 00:36:43;;;;;;;9.87;7.53;;;12.70;99.90;;;;;;4207889;28;20040;-57
2022/05/10 00:38:44;;;;;;;14.13;7.17;;;12.60;99.90;;;;;;4209776;28;20039;-58
2022/05/10 00:40:45;;;;;;;10.00;7.23;;;12.60;99.90;;;;;;4208156;28;20604;-66
2022/05/10 00:43:18;;;;;;;10.30;7.83;;;12.50;99.90;;;;;;4209225;28;20036;-72
2022/05/10 00:45:44;;;;;;;10.53;6.90;;;12.50;99.90;;;;;;4198981;28;20082;-71
2022/05/10 00:47:47;;;;;;;17.07;7.60;;;12.40;99.90;;;;;;4210855;28;20048;-73
2022/05/10 00:49:54;;;;;;;11.03;7.47;;;12.40;99.90;;;;;;4224425;28;20620;-56
2022/05/10 00:52:07;;;;;;;16.00;7.43;;;12.40;99.90;;;;;;4224580;28;20084;-54
2022/05/10 00:54:28;;;;;;;11.23;7.17;;;12.30;99.90;;;;;;4208084;28;20065;-53
2022/05/10 00:57:17;;;;;;;10.40;6.43;;;12.20;99.90;;;;;;4209230;28;20105;-54
2022/05/10 00:59:23;;;;;;;15.93;7.53;;;12.30;99.90;;;;;;4155545;28;20033;-55
2022/05/10 01:01:31;;;;;;;14.83;7.17;;;12.20;99.90;;;;;;4207475;28;20028;-61
2022/05/10 01:03:41;;;;;;;14.83;7.03;;;12.20;99.90;;;;;;4213818;28;20085;-68
2022/05/10 01:05:54;;;;;;;10.18;6.20;;;12.20;99.90;;;;;;4218655;28;20036;-52
2022/05/10 01:08:15;;;;;;;8.83;6.00;;;12.10;99.90;;;;;;4224215;28;20048;-57
2022/05/10 01:10:36;;;;;;;;;;;12.10;99.90;;;;;;4223937;28;20081;-56
2022/05/10 01:12:44;;;;;;;7.83;5.20;;;12.00;99.90;;;;;;4186057;28;19912;-57
2022/05/10 01:15:01;;;;;;;11.37;6.37;;;11.90;99.90;;;;;;4212059;28;20562;-62
2022/05/10 01:17:02;;;;;;;9.10;5.70;;;11.90;99.90;;;;;;4225577;28;20027;-53
2022/05/10 01:19:04;;;;;;;11.60;5.40;;;11.80;99.90;;;;;;4223822;28;20104;-71
2022/05/10 01:21:44;;;;;;;8.10;5.63;;;11.70;99.90;;;;;;4225993;28;20032;-53
2022/05/10 01:24:22;;;;;;;9.57;5.53;;;11.70;99.90;;;;;;4210570;28;20035;-55
2022/05/10 01:26:48;;;;;;;8.63;5.30;;;11.60;99.90;;;;;;4210034;28;20049;-53
2022/05/10 01:29:00;;;;;;;7.03;5.40;;;11.60;99.90;;;;;;4207630;28;20043;-57
2022/05/10 01:31:10;;;;;;;6.63;5.93;;;11.60;99.90;;;;;;4221588;28;20020;-56
2022/05/10 01:33:32;;;;;;;7.75;6.07;;;11.60;99.90;;;;;;4209083;28;20451;-58
2022/05/10 01:35:38;;;;;;;8.47;5.53;;;11.60;99.90;;;;;;4224351;28;20144;-58
2022/05/10 01:37:43;;;;;;;9.17;6.37;;;11.60;99.90;;;;;;4222484;28;20020;-65
2022/05/10 01:39:50;;;;;;;7.63;5.17;;;11.60;99.90;;;;;;4224469;28;20039;-55
2022/05/10 01:41:58;;;;;;;13.37;5.70;;;11.60;99.90;;;;;;4208646;28;20403;-70
2022/05/10 01:44:35;;;;;;;8.33;5.27;;;11.70;99.90;;;;;;4207580;28;20097;-53
2022/05/10 01:46:36;;;;;;;5.40;4.50;;;11.60;99.90;;;;;;4208089;28;20101;-59
2022/05/10 01:48:40;;;;;;;7.03;4.47;;;11.60;99.90;;;;;;4218607;28;20031;-52
2022/05/10 01:51:23;;;;;;;5.43;4.37;;;11.60;99.90;;;;;;4219691;27;20112;-57
2022/05/10 01:53:35;;;;;;;7.83;4.40;;;11.60;99.90;;;;;;4154515;28;20151;-71
2022/05/10 01:55:48;;;;;;;7.73;4.40;;;11.50;99.90;;;;;;4147537;28;20050;-63
2022/05/10 01:57:50;;;;;;;5.60;4.20;;;11.50;99.90;;;;;;4147390;28;22069;-67
2022/05/10 02:00:02;;;;;;;6.93;4.20;;;11.50;99.90;;;;;;4208960;28;20093;-57
2022/05/10 02:02:06;;;;;;;7.77;4.10;;;11.50;99.90;;;;;;4218506;28;20031;-58
2022/05/10 02:04:15;;;;;;;7.20;5.60;;;11.40;99.90;;;;;;4223203;28;20031;-55
2022/05/10 02:06:42;;;;;;;8.60;6.33;;;11.40;99.90;;;;;;4222259;28;20446;-54
2022/05/10 02:08:47;;;;;;;10.63;6.80;;;11.30;99.90;;;;;;4224541;28;20438;-56
2022/05/10 02:10:51;;;;;;;8.80;5.83;;;11.20;99.90;;;;;;4210454;28;20044;-53
2022/05/10 02:13:02;;;;;;;10.13;6.67;;;11.10;99.90;;;;;;4207723;28;20097;-51
2022/05/10 02:15:23;;;;;;;10.90;6.97;;;10.90;99.90;;;;;;4206701;28;20028;-53
2022/05/10 02:17:38;;;;;;;8.95;6.22;;;10.80;99.90;;;;;;4209410;28;20114;-61
2022/05/10 02:19:50;;;;;;;7.57;6.07;;;10.80;99.90;;;;;;4206244;28;20036;-59
2022/05/10 02:21:56;;;;;;;8.43;6.07;;;10.70;99.90;;;;;;4207520;28;20040;-59
2022/05/10 02:24:00;;;;;;;8.60;6.17;;;10.60;99.90;;;;;;4223770;28;20096;-59
2022/05/10 02:26:06;;;;;;;9.67;6.83;;;10.60;99.90;;;;;;4223051;28;20445;-65
2022/05/10 02:28:12;;;;;;;7.67;5.90;;;10.60;99.90;;;;;;4222233;28;20735;-55
2022/05/10 02:30:18;;;;;;;10.50;6.40;;;10.60;99.90;;;;;;4221013;28;20036;-58
2022/05/10 02:34:46;;;;;;;9.90;6.47;;;10.60;99.90;;;;;;4225055;28;20492;-59
2022/05/10 02:36:47;;;;;;;9.10;6.20;;;10.50;99.90;;;;;;4220983;28;20128;-53
2022/05/10 02:38:48;;;;;;;9.93;6.87;;;10.50;99.90;;;;;;4223804;28;20027;-55
2022/05/10 02:40:52;;;;;;;11.30;6.87;;;10.40;99.90;;;;;;4222868;28;20060;-54
2022/05/10 02:42:53;;;;;;;8.53;6.30;;;10.40;99.90;;;;;;4219749;28;20027;-67
2022/05/10 02:44:55;;;;;;;11.30;6.97;;;10.40;99.90;;;;;;4223081;28;20492;-57
2022/05/10 02:46:57;;;;;;;10.23;6.67;;;10.40;99.90;;;;;;4222713;28;20495;-60
2022/05/10 02:48:58;;;;;;;9.40;6.43;;;10.30;99.90;;;;;;4212527;28;20027;-56
2022/05/10 02:51:00;;;;;;;11.93;6.60;;;10.20;99.90;;;;;;4205867;28;20059;-50
2022/05/10 02:53:01;;;;;;;8.60;6.50;;;10.20;99.90;;;;;;4206900;28;20032;-54
2022/05/10 02:55:14;;;;;;;10.73;7.00;;;10.10;99.90;;;;;;4205961;28;20044;-59
2022/05/10 02:57:15;;;;;;;7.47;6.27;;;10.10;99.90;;;;;;4208368;28;20040;-63
2022/05/10 02:59:22;;;;;;;8.60;6.50;;;10.10;99.90;;;;;;4205749;28;20080;-50
2022/05/10 03:01:35;;;;;;;10.60;6.67;;;10.00;99.90;;;;;;4214668;28;20089;-55
2022/05/10 03:03:36;;;;;;;10.60;6.83;;;10.00;99.90;;;;;;4215990;28;20077;-58
2022/05/10 03:05:37;;;;;;;9.17;7.10;;;10.00;99.90;;;;;;4207534;28;20036;-55
2022/05/10 03:07:39;;;;;;;9.40;6.13;;;10.00;99.90;;;;;;4206846;28;20112;-65
2022/05/10 03:09:40;;;;;;;10.10;6.90;;;10.10;99.90;;;;;;4207255;28;20577;-61
2022/05/10 03:11:43;;;;;;;10.27;6.00;;;10.10;99.90;;;;;;4206584;28;20032;-65
2022/05/10 03:13:45;;;;;;;13.50;5.83;;;10.20;99.90;;;;;;4208389;28;20125;-72
2022/05/10 03:15:46;;;;;;;9.03;5.70;;;10.20;99.90;;;;;;4206889;28;20089;-57
2022/05/10 03:17:48;;;;;;;8.17;5.83;;;10.20;99.90;;;;;;4207154;28;20078;-66
2022/05/10 03:19:49;;;;;;;9.67;5.93;;;10.30;99.90;;;;;;4205808;28;20036;-69
2022/05/10 03:21:50;;;;;;;7.57;6.03;;;10.20;99.90;;;;;;4207545;28;20040;-57
2022/05/10 03:23:52;;;;;;;10.13;5.80;;;10.30;99.90;;;;;;4205373;28;20036;-65
2022/05/10 03:25:57;;;;;;;8.10;5.70;;;10.20;99.90;;;;;;4206558;28;20082;-68
2022/05/10 03:27:59;;;;;;;8.30;5.80;;;10.30;99.90;;;;;;4206112;28;20097;-58
2022/05/10 03:30:04;;;;;;;9.03;5.70;;;10.30;99.90;;;;;;4206389;28;20048;-59
2022/05/10 03:32:07;;;;;;;6.00;4.77;;;10.20;99.90;;;;;;4216953;28;20831;-59
2022/05/10 03:36:28;;;;;;;7.57;5.60;;;10.20;99.90;;;;;;4206662;28;20035;-64
2022/05/10 03:38:29;;;;;;;8.80;5.83;;;10.20;99.90;;;;;;4206227;28;20462;-53
2022/05/10 03:40:30;;;;;;;8.63;6.53;;;10.20;99.90;;;;;;4210055;28;20040;-53
2022/05/10 03:42:32;;;;;;;10.50;6.33;;;10.30;99.90;;;;;;4204369;28;20032;-57
2022/05/10 03:44:35;;;;;;;11.23;6.53;;;10.40;99.90;;;;;;4207009;28;20044;-55
2022/05/10 03:46:36;;;;;;;9.97;6.30;;;10.40;99.90;;;;;;4206211;28;20077;-61
2022/05/10 03:48:37;;;;;;;13.00;7.00;;;10.50;99.90;;;;;;4216195;28;20040;-64
2022/05/10 03:50:38;;;;;;;10.90;7.10;;;10.50;99.90;;;;;;4209372;28;20123;-57
2022/05/10 03:52:41;;;;;;;11.57;6.43;;;10.40;99.90;;;;;;4212618;28;20039;-55
2022/05/10 03:54:43;;;;;;;12.20;6.40;;;10.30;99.90;;;;;;4233077;27;20085;-53
2022/05/10 03:56:44;;;;;;;13.47;7.17;;;10.30;99.90;;;;;;4231198;27;20047;-57
2022/05/10 03:58:45;;;;;;;11.40;6.70;;;10.40;99.90;;;;;;4226231;27;20044;-56
2022/05/10 04:00:46;;;;;;;9.73;6.57;;;10.40;99.90;;;;;;4236210;27;20128;-65
2022/05/10 04:02:47;;;;;;;10.37;6.53;;;10.50;99.90;;;;;;4230278;27;20020;-55
2022/05/10 04:04:48;;;;;;;10.23;7.43;;;10.50;99.90;;;;;;4224345;28;20032;-53
2022/05/10 04:06:49;;;;;;;11.40;6.63;;;10.60;99.90;;;;;;4233631;28;20101;-71
2022/05/10 04:08:51;;;;;;;13.77;6.63;;;10.60;99.90;;;;;;4220767;28;20695;-52
2022/05/10 04:10:52;;;;;;;14.77;8.43;;;10.60;99.90;;;;;;4222962;28;20393;-56
2022/05/10 04:12:53;;;;;;;17.03;9.50;;;10.80;99.90;;;;;;4220764;27;20039;-56
2022/05/10 04:14:55;;;;;;;14.60;8.37;;;10.80;99.90;;;;;;4222401;28;20036;-54
2022/05/10 04:16:56;;;;;;;14.97;8.23;;;11.00;99.90;;;;;;4221113;28;20032;-55
2022/05/10 04:18:58;;;;;;;14.23;8.30;;;11.00;99.90;;;;;;4221272;28;20109;-54
2022/05/10 04:20:59;;;;;;;13.23;8.30;;;11.00;99.90;;;;;;4214807;28;20128;-65
2022/05/10 04:23:00;;;;;;;20.23;9.00;;;11.10;99.90;;;;;;4212801;28;20089;-57
2022/05/10 04:25:02;;;;;;;19.73;10.07;;;11.20;99.90;;;;;;4204822;28;20093;-56
2022/05/10 04:27:03;;;;;;;19.87;9.93;;;11.20;99.90;;;;;;4206289;28;20044;-52
2022/05/10 04:29:04;;;;;;;20.93;10.23;;;11.20;99.90;;;;;;4204177;28;20525;-60
2022/05/10 04:31:06;;;;;;;23.77;10.97;;;11.20;99.90;;;;;;4205935;28;20529;-58
2022/05/10 04:33:08;;;;;;;22.90;10.23;;;11.20;99.90;;;;;;4203027;28;20048;-65
2022/05/10 04:35:10;;;;;;;25.43;10.87;;;11.20;99.90;;;;;;4237374;27;20076;-60
2022/05/10 04:37:11;;;;;;;24.40;13.13;;;11.30;99.90;;;;;;4218609;28;20031;-66
2022/05/10 04:39:13;;;;;;;20.37;11.00;;;11.30;99.90;;;;;;4210144;28;20036;-56
2022/05/10 04:41:27;;;;;;;23.97;10.73;;;11.30;99.90;;;;;;4212748;28;20035;-57
2022/05/10 04:43:28;;;;;;;21.97;11.83;;;11.40;99.90;;;;;;4221161;28;20040;-56
2022/05/10 04:45:29;;;;;;;25.00;11.43;;;11.50;99.90;;;;;;4221456;28;20143;-61
2022/05/10 04:47:31;;;;;;;29.50;12.40;;;11.50;99.90;;;;;;4203886;28;20051;-55
2022/05/10 04:49:32;;;;;;;25.00;11.47;;;11.50;99.90;;;;;;4208817;28;20032;-58
2022/05/10 04:51:33;;;;;;;28.23;13.07;;;11.50;99.90;;;;;;4220902;28;20112;-58
2022/05/10 04:53:35;;;;;;;25.37;12.73;;;11.60;99.90;;;;;;4222455;28;20491;-58
2022/05/10 04:55:36;;;;;;;27.53;13.03;;;11.60;99.90;;;;;;4205486;28;20028;-59
2022/05/10 04:57:38;;;;;;;32.00;12.33;;;11.70;99.90;;;;;;4206097;28;20040;-58
2022/05/10 04:59:39;;;;;;;18.80;10.87;;;11.70;99.90;;;;;;4203698;28;20044;-62
2022/05/10 05:01:41;;;;;;;20.70;10.97;;;11.70;99.90;;;;;;4205689;28;20144;-57
2022/05/10 05:03:45;;;;;;;25.30;12.10;;;11.70;99.90;;;;;;4203936;28;20074;-64
2022/05/10 05:05:47;;;;;;;18.97;11.63;;;11.70;99.90;;;;;;4205698;28;20081;-54
2022/05/10 05:07:48;;;;;;;17.17;11.07;;;11.70;99.90;;;;;;4204088;28;20039;-57
2022/05/10 05:09:49;;;;;;;26.60;12.33;;;11.80;99.90;;;;;;4204979;28;20057;-58
2022/05/10 05:11:50;;;;;;;19.13;11.27;;;12.00;99.90;;;;;;4204721;28;20087;-58
2022/05/10 05:13:52;;;;;;;17.63;11.47;;;12.00;99.90;;;;;;4204426;28;20040;-63
2022/05/10 05:15:53;;;;;;;19.43;11.93;;;12.10;99.90;;;;;;4205186;28;20483;-55
2022/05/10 05:17:54;;;;;;;19.67;11.50;;;12.20;99.90;;;;;;4206763;28;20048;-57
2022/05/10 05:19:56;;;;;;;16.57;11.07;;;12.30;99.90;;;;;;4208648;28;20385;-60
2022/05/10 05:21:57;;;;;;;20.20;11.27;;;12.40;99.90;;;;;;4206755;28;20052;-61
2022/05/10 05:23:58;;;;;;;16.63;10.53;;;12.40;99.90;;;;;;4208357;28;20111;-57
2022/05/10 05:25:59;;;;;;;22.60;11.93;;;12.40;99.90;;;;;;4207065;28;20036;-57
2022/05/10 05:28:00;;;;;;;17.50;10.57;;;12.40;99.90;;;;;;4208027;28;20109;-56
2022/05/10 05:30:02;;;;;;;17.23;10.47;;;12.50;99.90;;;;;;4206706;28;20117;-57
2022/05/10 05:32:07;;;;;;;29.17;16.53;;;12.50;99.90;;;;;;4208526;28;20028;-58
2022/05/10 05:34:08;;;;;;;22.70;14.10;;;12.50;99.90;;;;;;4206657;28;20031;-57
2022/05/10 05:36:09;;;;;;;24.13;14.37;;;12.40;99.90;;;;;;4208099;28;20468;-56
2022/05/10 05:38:10;;;;;;;26.30;13.63;;;12.20;99.90;;;;;;4206663;28;20106;-57
2022/05/10 05:40:14;;;;;;;27.97;15.37;;;12.10;99.90;;;;;;4207512;28;20822;-61
2022/05/10 05:42:17;;;;;;;29.33;14.93;;;12.00;99.90;;;;;;4207032;28;20089;-56
2022/05/10 05:44:18;;;;;;;24.63;15.60;;;12.10;99.90;;;;;;4207054;28;20093;-55
2022/05/10 05:46:20;;;;;;;19.07;12.70;;;12.10;99.90;;;;;;4207321;28;20070;-59
2022/05/10 05:48:21;;;;;;;33.27;19.33;;;12.00;99.90;;;;;;4206519;28;20454;-58
2022/05/10 05:50:24;;;;;;;30.67;17.27;;;12.10;99.90;;;;;;4207709;28;20044;-58
2022/05/10 05:52:26;;;;;;;25.03;14.23;;;12.10;99.90;;;;;;4205463;28;20153;-58
2022/05/10 05:54:27;;;;;;;23.17;12.93;;;12.00;99.90;;;;;;4207755;28;20101;-56
2022/05/10 05:56:28;;;;;;;20.43;12.63;;;12.10;99.90;;;;;;4206707;28;20488;-55
2022/05/10 05:58:30;;;;;;;22.57;11.57;;;12.20;99.90;;;;;;4208054;28;20036;-52
2022/05/10 06:00:31;;;;;;;18.47;11.37;;;12.20;99.90;;;;;;4206262;28;20024;-58
2022/05/10 06:02:33;;;;;;;19.80;11.37;;;12.30;99.90;;;;;;4207820;28;20652;-60
2022/05/10 06:04:35;;;;;;;21.97;12.67;;;12.20;99.90;;;;;;4205977;28;20839;-56
2022/05/10 06:06:36;;;;;;;22.33;14.13;;;12.30;99.90;;;;;;4207924;28;20077;-56
2022/05/10 06:08:38;;;;;;;25.17;15.40;;;12.20;99.90;;;;;;4206463;28;20148;-57
2022/05/10 06:10:39;;;;;;;29.00;15.57;;;12.30;99.90;;;;;;4207511;28;20086;-58
2022/05/10 06:12:41;;;;;;;26.97;16.43;;;12.30;99.90;;;;;;4206453;28;20040;-60
2022/05/10 06:14:42;;;;;;;30.53;17.13;;;12.30;99.90;;;;;;4207349;28;20421;-57
2022/05/10 06:16:44;;;;;;;26.83;16.90;;;12.30;99.90;;;;;;4207205;28;20024;-57
2022/05/10 06:18:45;;;;;;;30.17;17.30;;;12.30;99.90;;;;;;4206507;28;20048;-57
2022/05/10 06:20:46;;;;;;;27.77;16.73;;;12.40;99.90;;;;;;4207379;28;20032;-58
2022/05/10 06:22:48;;;;;;;24.70;15.57;;;12.50;99.90;;;;;;4204015;28;20106;-57
2022/05/10 06:24:49;;;;;;;29.77;17.27;;;12.60;99.90;;;;;;4207832;28;20040;-57
2022/05/10 06:26:51;;;;;;;35.37;18.07;;;12.80;99.90;;;;;;4206186;28;20113;-54
2022/05/10 06:28:52;;;;;;;30.67;18.47;;;12.90;99.90;;;;;;4206188;28;20051;-69
2022/05/10 06:30:55;;;;;;;41.27;19.67;;;13.00;99.90;;;;;;4205867;28;20377;-56
2022/05/10 06:32:59;;;;;;;31.70;18.73;;;13.10;99.90;;;;;;4207543;28;20024;-56
2022/05/10 06:35:01;;;;;;;36.60;17.57;;;13.30;99.90;;;;;;4206153;28;20145;-58
2022/05/10 06:38:15;;;;;;;31.30;18.97;;;13.50;99.90;;;;;;4207153;28;20044;-55
2022/05/10 06:39:23;;;;;;;29.60;17.60;;;13.70;99.90;;;;;;4205758;28;20044;-58
2022/05/10 06:41:24;;;;;;;36.50;17.63;;;14.00;99.90;;;;;;4207285;28;20032;-58
2022/05/10 06:43:26;;;;;;;33.77;17.07;;;14.20;99.90;;;;;;4205599;28;20040;-55
2022/05/10 06:45:28;;;;;;;26.17;16.43;;;14.20;99.90;;;;;;4206456;28;20040;-60
2022/05/10 06:47:29;;;;;;;27.93;16.00;;;14.20;99.90;;;;;;4205578;28;20044;-56
2022/05/10 06:49:30;;;;;;;31.20;16.23;;;14.20;99.90;;;;;;4206540;28;20077;-64
2022/05/10 06:51:33;;;;;;;28.17;17.10;;;14.40;99.90;;;;;;4205903;28;20085;-58
2022/05/10 06:53:35;;;;;;;28.47;16.80;;;14.60;99.90;;;;;;4206474;28;20033;-61
2022/05/10 06:55:38;;;;;;;24.57;15.93;;;14.50;99.90;;;;;;4207532;28;20101;-65
2022/05/10 06:57:39;;;;;;;34.80;16.87;;;14.30;99.90;;;;;;4205658;28;20765;-57
2022/05/10 06:59:41;;;;;;;33.37;17.17;;;14.20;99.90;;;;;;4206988;28;20035;-66
2022/05/10 07:01:43;;;;;;;29.77;17.90;;;14.30;99.90;;;;;;4203850;28;20038;-58
2022/05/10 07:03:48;;;;;;;29.33;17.67;;;14.40;99.90;;;;;;4206746;28;20484;-59
2022/05/10 07:05:49;;;;;;;30.57;18.50;;;14.70;99.90;;;;;;4203962;28;20492;-59
2022/05/10 07:07:50;;;;;;;27.33;17.80;;;14.90;99.90;;;;;;4207065;28;20035;-55
2022/05/10 07:09:52;;;;;;;33.90;19.17;;;15.20;99.90;;;;;;4205250;28;20151;-58
2022/05/10 07:11:53;;;;;;;23.73;16.70;;;15.40;99.90;;;;;;4206647;28;20044;-55
2022/05/10 07:13:54;;;;;;;23.47;14.53;;;15.60;99.90;;;;;;4205002;28;21143;-58
2022/05/10 07:15:56;;;;;;;25.37;14.90;;;15.70;99.90;;;;;;4206863;28;20137;-55
2022/05/10 07:17:57;;;;;;;24.63;13.63;;;15.70;99.90;;;;;;4204943;28;20112;-60
2022/05/10 07:19:58;;;;;;;27.48;15.07;;;16.00;99.90;;;;;;4206282;28;20063;-65
2022/05/10 07:21:59;;;;;;;24.83;13.80;;;16.20;99.90;;;;;;4205642;28;20816;-57
2022/05/10 07:24:01;;;;;;;30.25;14.77;;;16.40;99.90;;;;;;4205475;28;20065;-52
2022/05/10 07:26:03;;;;;;;20.52;13.27;;;16.50;99.90;;;;;;4205746;28;20048;-57
2022/05/10 07:28:07;;;;;;;18.50;12.45;;;16.50;99.90;;;;;;4205125;28;20040;-63
2022/05/10 07:30:11;;;;;;;18.75;11.77;;;16.60;99.90;;;;;;4205960;28;20077;-57
2022/05/10 07:32:14;;;;;;;15.18;10.93;;;16.90;99.90;;;;;;4205427;28;20461;-58
2022/05/10 07:34:16;;;;;;;19.70;11.43;;;17.00;99.90;;;;;;4206193;28;20393;-56
2022/05/10 07:36:28;;;;;;;18.75;11.27;;;17.00;99.90;;;;;;4204592;28;20075;-57
2022/05/10 07:38:29;;;;;;;16.77;10.98;;;17.10;99.90;;;;;;4206334;28;20763;-58
2022/05/10 07:40:31;;;;;;;13.68;9.35;;;17.20;99.90;;;;;;4205093;28;20024;-58
2022/05/10 07:42:32;;;;;;;14.68;9.52;;;17.20;99.90;;;;;;4206550;28;20036;-57
2022/05/10 07:44:34;;;;;;;14.45;9.93;;;17.30;99.90;;;;;;4204617;28;20300;-58
2022/05/10 07:46:35;;;;;;;16.85;8.15;;;17.40;99.90;;;;;;4206835;28;20016;-58
2022/05/10 07:48:36;;;;;;;12.13;6.82;;;17.60;99.90;;;;;;4204176;28;20055;-57
2022/05/10 07:50:37;;;;;;;9.77;6.15;;;17.80;99.90;;;;;;4206295;28;20043;-58
2022/05/10 07:52:40;;;;;;;9.18;6.65;;;17.80;99.90;;;;;;4204623;28;20036;-55
2022/05/10 07:54:41;;;;;;;7.65;6.22;;;17.70;99.90;;;;;;4206150;28;20549;-54
2022/05/10 07:56:43;;;;;;;10.10;6.35;;;17.90;99.90;;;;;;4205098;28;20399;-58
2022/05/10 07:58:44;;;;;;;9.02;5.95;;;17.90;99.90;;;;;;4205722;28;20040;-69
2022/05/10 08:00:45;;;;;;;5.85;4.32;;;17.90;99.90;;;;;;4205035;28;20048;-63
2022/05/10 08:02:46;;;;;;;5.55;3.90;;;18.00;99.90;;;;;;4205154;28;20024;-63
2022/05/10 08:04:47;;;;;;;3.88;3.05;;;18.40;99.90;;;;;;4205647;28;20028;-57
2022/05/10 08:06:49;;;;;;;5.20;2.90;;;18.60;99.90;;;;;;4204644;28;20082;-61
2022/05/10 08:08:50;;;;;;;4.05;3.13;;;18.50;99.90;;;;;;4206219;28;21000;-58
2022/05/10 08:10:53;;;;;;;5.32;3.35;;;18.50;99.90;;;;;;4204732;28;20046;-59
2022/05/10 08:12:54;;;;;;;4.32;3.10;;;18.40;99.90;;;;;;4206528;28;20057;-66
2022/05/10 08:14:55;;;;;;;4.15;3.08;;;18.30;99.90;;;;;;4204341;28;20059;-56
2022/05/10 08:16:56;;;;;;;3.90;2.72;;;18.30;99.90;;;;;;4206158;28;20480;-60
2022/05/10 08:18:58;;;;;;;3.38;2.45;;;18.40;99.90;;;;;;4204215;28;20089;-58
2022/05/10 08:20:59;;;;;;;5.63;2.20;;;18.50;99.90;;;;;;4205962;28;20434;-55
2022/05/10 08:23:01;;;;;;;2.80;2.55;;;18.60;99.90;;;;;;4204173;28;20545;-58
2022/05/10 08:25:02;;;;;;;4.68;2.70;;;18.50;99.90;;;;;;4205603;28;20048;-57
2022/05/10 08:27:04;;;;;;;4.95;2.28;;;18.60;99.90;;;;;;4204517;28;20097;-57
2022/05/10 08:29:05;;;;;;;2.63;2.42;;;18.80;99.90;;;;;;4205267;28;20494;-59
2022/05/10 08:31:08;;;;;;;3.67;2.38;;;19.00;99.90;;;;;;4202850;28;20476;-56
2022/05/10 08:33:10;;;;;;;2.67;2.40;;;19.20;99.90;;;;;;4204093;28;20434;-59
2022/05/10 08:35:11;;;;;;;4.32;2.45;;;19.50;99.90;;;;;;4204617;28;20097;-58
2022/05/10 08:37:12;;;;;;;5.70;3.03;;;19.80;99.90;;;;;;4203883;28;20474;-72
2022/05/10 08:39:14;;;;;;;2.83;2.50;;;19.90;99.90;;;;;;4205224;28;20028;-59
2022/05/10 08:41:24;;;;;;;3.30;2.50;;;19.80;99.90;;;;;;4204112;28;20032;-61
2022/05/10 08:43:43;;;;;;;;;;;20.10;99.90;;;;;;4205825;28;20044;-61
2022/05/10 08:45:45;;;;;;;3.17;2.13;;;20.20;99.90;;;;;;4203784;28;20789;-61
2022/05/10 08:47:47;;;;;;;3.72;2.13;;;20.20;99.90;;;;;;4205437;28;20049;-56
2022/05/10 08:49:53;;;;;;;5.60;2.60;;;20.20;99.90;;;;;;4201914;28;20085;-58
2022/05/10 08:51:54;;;;;;;2.70;2.25;;;20.00;99.90;;;;;;4206812;28;20037;-57
2022/05/10 08:53:56;;;;;;;4.13;2.22;;;20.00;99.90;;;;;;4207615;28;20435;-54
2022/05/10 08:56:35;;;;;;;2.15;1.90;;;19.90;99.90;;;;;;4209010;28;20062;-56
2022/05/10 08:58:42;;;;;;;4.75;1.98;;;19.70;99.90;;;;;;4203967;28;20318;-55
2022/05/10 09:00:49;;;;;;;2.30;2.10;;;19.80;99.90;;;;;;4208937;28;20039;-54
2022/05/10 09:02:56;;;;;;;6.13;2.50;;;19.70;99.90;;;;;;4207227;28;20487;-61
2022/05/10 09:05:28;;;;;;;3.83;2.25;;;19.80;99.90;;;;;;4208711;28;20565;-59
2022/05/10 09:07:53;;;;;;;5.57;2.28;;;19.80;99.90;;;;;;4207700;28;20077;-56
2022/05/10 09:10:18;;;;;;;2.85;2.00;;;19.80;99.90;;;;;;4207735;28;20093;-64
2022/05/10 09:12:22;;;;;;;3.67;1.80;;;19.80;99.90;;;;;;4208548;28;20032;-58
2022/05/10 09:14:33;;;;;;;3.55;1.88;;;20.00;99.90;;;;;;4206930;28;20473;-59
2022/05/10 09:16:34;;;;;;;;;;;20.20;99.90;;;;;;4208133;28;20044;-59
2022/05/10 09:18:40;;;;;;;2.78;1.90;;;20.40;99.90;;;;;;4208019;28;20507;-65
2022/05/10 09:21:00;;;;;;;2.20;2.10;;;20.40;99.90;;;;;;4207830;28;20096;-59
2022/05/10 09:23:45;;;;;;;2.22;1.85;;;20.40;99.90;;;;;;4207390;28;20074;-60
2022/05/10 09:25:48;;;;;;;2.85;2.28;;;20.30;99.90;;;;;;4184551;28;20056;-71
2022/05/10 09:27:51;;;;;;;1.90;1.80;;;20.20;99.90;;;;;;4206656;28;20032;-58
2022/05/10 09:29:53;;;;;;;2.47;1.90;;;20.00;99.90;;;;;;4207858;28;20532;-58
2022/05/10 09:36:35;;;;;;;2.87;2.17;;;20.10;99.90;;;;;;4207152;28;20553;-58
2022/05/10 09:38:47;;;;;;;2.03;1.70;;;20.10;99.90;;;;;;4208464;28;20330;-55
2022/05/10 09:40:48;;;;;;;2.55;1.67;;;19.90;99.90;;;;;;4206742;28;20233;-57
2022/05/10 09:42:52;;;;;;;3.35;2.08;;;19.80;99.90;;;;;;4207941;28;20472;-58
2022/05/10 09:45:06;;;;;;;1.80;1.67;;;19.90;99.90;;;;;;4207184;28;20897;-60
2022/05/10 09:47:14;;;;;;;1.48;1.38;;;20.20;99.90;;;;;;4207658;28;20125;-65
2022/05/10 09:49:36;;;;;;;1.88;1.75;;;20.20;99.90;;;;;;4206565;28;20048;-58
2022/05/10 09:51:41;;;;;;;3.10;2.17;;;20.20;99.60;;;;;;4208436;28;20109;-57
2022/05/10 09:53:42;;;;;;;2.28;1.80;;;20.20;99.90;;;;;;4206142;28;20031;-57
2022/05/10 09:56:03;;;;;;;1.88;1.63;;;20.20;99.90;;;;;;4207809;28;20035;-58
2022/05/10 09:58:24;;;;;;;2.63;1.70;;;20.20;99.90;;;;;;4206487;28;20032;-58
2022/05/10 10:00:45;;;;;;;4.95;2.10;;;20.30;99.90;;;;;;4208006;28;20024;-56
2022/05/10 10:02:56;;;;;;;1.67;1.58;;;20.40;98.90;;;;;;4205325;28;20089;-57
2022/05/10 10:04:58;;;;;;;2.35;1.67;;;20.30;98.70;;;;;;4207470;28;20043;-55
2022/05/10 10:07:13;;;;;;;2.33;1.95;;;20.40;99.40;;;;;;4206067;28;20032;-55
2022/05/10 10:09:30;;;;;;;1.48;1.38;;;20.20;98.70;;;;;;4207609;28;20032;-56
2022/05/10 10:11:34;;;;;;;2.00;1.50;;;20.10;98.20;;;;;;4205970;28;20129;-52
2022/05/10 10:13:39;;;;;;;2.80;1.50;;;20.00;99.50;;;;;;4208167;28;20040;-58
2022/05/10 10:15:43;;;;;;;1.65;1.55;;;20.10;99.80;;;;;;4206164;28;20073;-58
2022/05/10 10:17:57;;;;;;;2.88;1.90;;;20.20;99.50;;;;;;4207522;28;20541;-55
2022/05/10 10:20:20;;;;;;;1.70;1.60;;;20.30;99.40;;;;;;4204413;28;20040;-54
2022/05/10 10:22:41;;;;;;;3.28;1.60;;;20.40;99.00;;;;;;4207233;28;20557;-58
2022/05/10 10:24:46;;;;;;;2.30;1.60;;;20.60;98.90;;;;;;4205248;28;20051;-55
2022/05/10 10:26:53;;;;;;;2.90;1.52;;;20.80;99.40;;;;;;4207519;28;20031;-57
2022/05/10 10:29:22;;;;;;;1.77;1.42;;;21.00;99.00;;;;;;4205312;28;20039;-58
2022/05/10 10:31:40;;;;;;;1.50;1.40;;;20.90;98.20;;;;;;4207049;28;20027;-54
2022/05/10 10:33:47;;;;;;;1.90;1.58;;;20.80;97.80;;;;;;4204533;28;20102;-57
2022/05/10 10:36:03;;;;;;;1.95;1.70;;;20.70;98.30;;;;;;4207341;28;20040;-56
2022/05/10 10:38:28;;;;;;;1.50;1.40;;;20.70;98.60;;;;;;4205531;28;20101;-58
2022/05/10 10:40:44;;;;;;;1.88;1.58;;;20.60;98.10;;;;;;4207022;28;20508;-58
2022/05/10 10:43:16;;;;;;;1.50;1.40;;;20.50;97.50;;;;;;4206160;28;20102;-60
2022/05/10 10:45:18;;;;;;;3.90;1.42;;;20.60;98.50;;;;;;4205790;28;20105;-57
2022/05/10 10:47:35;;;;;;;1.88;1.30;;;20.70;98.10;;;;;;4206597;28;20028;-57
2022/05/10 10:49:45;;;;;;;2.33;1.42;;;20.60;97.20;;;;;;4205772;28;20047;-59
2022/05/10 10:51:46;;;;;;;;;;;20.60;97.00;;;;;;4207246;28;20045;-58
2022/05/10 10:53:47;;;;;;;4.60;1.98;;;20.60;95.60;;;;;;4205970;28;19981;-57
2022/05/10 10:56:27;;;;;;;2.65;1.77;;;20.60;97.10;;;;;;4206373;28;20082;-54
2022/05/10 10:58:47;;;;;;;1.40;1.23;;;20.60;96.70;;;;;;4205598;28;20499;-56